sensor_id;sensor_type;location;lat;lon;timestamp;P1;durP1;ratioP1;P2;durP2;ratioP2
42194;SDS011;27863;49.440;11.102;2022-07-30T00:00:30;9.80;;;9.02;;
42194;SDS011;27863;49.440;11.102;2022-07-30T00:03:31;9.43;;;8.82;;
42194;SDS011;27863;49.440;11.102;2022-07-30T00:06:32;9.48;;;8.55;;
42194;SDS011;27863;49.440;11.102;2022-07-30T00:09:33;9.43;;;8.73;;
42194;SDS011;27863;49.440;11.102;2022-07-30T00:12:33;9.60;;;8.80;;
42194;SDS011;27863;49.440;11.102;2022-07-30T00:15:35;8.85;;;8.25;;
42194;SDS011;27863;49.440;11.102;2022-07-30T00:18:36;9.00;;;8.40;;
42194;SDS011;27863;49.440;11.102;2022-07-30T00:21:37;8.25;;;7.65;;
42194;SDS011;27863;49.440;11.102;2022-07-30T00:24:37;8.38;;;7.65;;
42194;SDS011;27863;49.440;11.102;2022-07-30T00:27:38;9.43;;;8.73;;
42194;SDS011;27863;49.440;11.102;2022-07-30T00:30:38;10.02;;;7.80;;
42194;SDS011;27863;49.440;11.102;2022-07-30T00:33:39;8.60;;;8.00;;
42194;SDS011;27863;49.440;11.102;2022-07-30T00:36:40;9.30;;;8.60;;
42194;SDS011;27863;49.440;11.102;2022-07-30T00:39:40;9.30;;;8.43;;
42194;SDS011;27863;49.440;11.102;2022-07-30T00:42:44;8.73;;;8.02;;
42194;SDS011;27863;49.440;11.102;2022-07-30T00:45:46;8.25;;;7.65;;
42194;SDS011;27863;49.440;11.102;2022-07-30T00:48:47;9.10;;;8.45;;
42194;SDS011;27863;49.440;11.102;2022-07-30T00:51:48;8.85;;;8.10;;
42194;SDS011;27863;49.440;11.102;2022-07-30T00:54:49;9.35;;;8.55;;
42194;SDS011;27863;49.440;11.102;2022-07-30T00:57:50;8.68;;;8.05;;
42194;SDS011;27863;49.440;11.102;2022-07-30T01:00:50;8.52;;;7.95;;
42194;SDS011;27863;49.440;11.102;2022-07-30T01:03:51;8.30;;;7.70;;
42194;SDS011;27863;49.440;11.102;2022-07-30T01:06:52;11.45;;;9.20;;
42194;SDS011;27863;49.440;11.102;2022-07-30T01:09:52;8.90;;;8.00;;
42194;SDS011;27863;49.440;11.102;2022-07-30T01:12:53;8.65;;;7.95;;
42194;SDS011;27863;49.440;11.102;2022-07-30T01:15:53;9.25;;;8.65;;
42194;SDS011;27863;49.440;11.102;2022-07-30T01:18:55;8.60;;;7.95;;
42194;SDS011;27863;49.440;11.102;2022-07-30T01:28:51;8.77;;;8.18;;
42194;SDS011;27863;49.440;11.102;2022-07-30T01:31:55;8.85;;;8.05;;
42194;SDS011;27863;49.440;11.102;2022-07-30T01:35:01;9.05;;;8.35;;
42194;SDS011;27863;49.440;11.102;2022-07-30T01:38:03;7.93;;;7.43;;
42194;SDS011;27863;49.440;11.102;2022-07-30T01:41:06;8.57;;;7.88;;
42194;SDS011;27863;49.440;11.102;2022-07-30T01:44:09;8.52;;;7.82;;
42194;SDS011;27863;49.440;11.102;2022-07-30T01:47:11;8.73;;;8.13;;
42194;SDS011;27863;49.440;11.102;2022-07-30T01:50:12;7.53;;;7.03;;
42194;SDS011;27863;49.440;11.102;2022-07-30T01:53:18;8.68;;;7.95;;
42194;SDS011;27863;49.440;11.102;2022-07-30T01:56:22;8.10;;;7.50;;
42194;SDS011;27863;49.440;11.102;2022-07-30T01:59:24;9.18;;;8.52;;
42194;SDS011;27863;49.440;11.102;2022-07-30T02:02:26;8.57;;;7.90;;
42194;SDS011;27863;49.440;11.102;2022-07-30T02:05:27;9.65;;;8.95;;
42194;SDS011;27863;49.440;11.102;2022-07-30T02:08:39;11.65;;;10.00;;
42194;SDS011;27863;49.440;11.102;2022-07-30T02:11:42;10.27;;;9.38;;
42194;SDS011;27863;49.440;11.102;2022-07-30T02:15:09;9.43;;;8.73;;
42194;SDS011;27863;49.440;11.102;2022-07-30T02:18:19;9.00;;;8.25;;
42194;SDS011;27863;49.440;11.102;2022-07-30T02:21:23;8.90;;;8.32;;
42194;SDS011;27863;49.440;11.102;2022-07-30T02:24:26;9.82;;;9.00;;
42194;SDS011;27863;49.440;11.102;2022-07-30T02:27:29;10.38;;;9.68;;
42194;SDS011;27863;49.440;11.102;2022-07-30T02:30:31;9.43;;;8.63;;
42194;SDS011;27863;49.440;11.102;2022-07-30T02:33:36;10.05;;;9.35;;
42194;SDS011;27863;49.440;11.102;2022-07-30T02:36:38;10.10;;;9.23;;
42194;SDS011;27863;49.440;11.102;2022-07-30T02:39:42;9.57;;;8.88;;
42194;SDS011;27863;49.440;11.102;2022-07-30T02:42:44;9.80;;;9.00;;
42194;SDS011;27863;49.440;11.102;2022-07-30T02:45:48;9.88;;;9.07;;
42194;SDS011;27863;49.440;11.102;2022-07-30T02:48:52;8.80;;;8.00;;
42194;SDS011;27863;49.440;11.102;2022-07-30T02:51:53;10.38;;;9.45;;
42194;SDS011;27863;49.440;11.102;2022-07-30T02:54:54;8.35;;;7.78;;
42194;SDS011;27863;49.440;11.102;2022-07-30T02:57:56;10.32;;;9.60;;
42194;SDS011;27863;49.440;11.102;2022-07-30T03:00:56;10.07;;;9.48;;
42194;SDS011;27863;49.440;11.102;2022-07-30T03:03:58;11.60;;;10.55;;
42194;SDS011;27863;49.440;11.102;2022-07-30T03:06:59;9.88;;;9.18;;
42194;SDS011;27863;49.440;11.102;2022-07-30T03:10:00;11.02;;;10.30;;
42194;SDS011;27863;49.440;11.102;2022-07-30T03:13:03;10.07;;;9.38;;
42194;SDS011;27863;49.440;11.102;2022-07-30T03:16:06;10.50;;;9.70;;
42194;SDS011;27863;49.440;11.102;2022-07-30T03:19:09;11.98;;;11.07;;
42194;SDS011;27863;49.440;11.102;2022-07-30T03:22:11;10.98;;;10.10;;
42194;SDS011;27863;49.440;11.102;2022-07-30T03:25:15;10.07;;;9.32;;
42194;SDS011;27863;49.440;11.102;2022-07-30T03:28:17;10.35;;;9.32;;
42194;SDS011;27863;49.440;11.102;2022-07-30T03:31:19;9.95;;;9.35;;
42194;SDS011;27863;49.440;11.102;2022-07-30T03:34:20;11.10;;;9.93;;
42194;SDS011;27863;49.440;11.102;2022-07-30T03:37:20;11.65;;;10.82;;
42194;SDS011;27863;49.440;11.102;2022-07-30T03:40:21;10.98;;;10.20;;
42194;SDS011;27863;49.440;11.102;2022-07-30T03:43:22;12.32;;;11.35;;
42194;SDS011;27863;49.440;11.102;2022-07-30T03:46:24;12.18;;;11.25;;
42194;SDS011;27863;49.440;11.102;2022-07-30T03:49:27;14.43;;;13.25;;
42194;SDS011;27863;49.440;11.102;2022-07-30T03:52:29;14.93;;;13.63;;
42194;SDS011;27863;49.440;11.102;2022-07-30T03:55:34;15.13;;;13.93;;
42194;SDS011;27863;49.440;11.102;2022-07-30T03:58:54;22.23;;;14.48;;
42194;SDS011;27863;49.440;11.102;2022-07-30T04:01:59;17.25;;;15.75;;
42194;SDS011;27863;49.440;11.102;2022-07-30T04:05:20;16.98;;;15.52;;
42194;SDS011;27863;49.440;11.102;2022-07-30T04:08:22;14.18;;;12.98;;
42194;SDS011;27863;49.440;11.102;2022-07-30T04:11:23;16.00;;;14.80;;
42194;SDS011;27863;49.440;11.102;2022-07-30T04:14:41;13.98;;;12.88;;
42194;SDS011;27863;49.440;11.102;2022-07-30T04:17:43;16.05;;;14.75;;
42194;SDS011;27863;49.440;11.102;2022-07-30T04:20:47;16.00;;;14.80;;
42194;SDS011;27863;49.440;11.102;2022-07-30T04:23:48;17.60;;;16.10;;
42194;SDS011;27863;49.440;11.102;2022-07-30T04:26:49;17.70;;;16.17;;
42194;SDS011;27863;49.440;11.102;2022-07-30T04:29:51;11.80;;;10.88;;
42194;SDS011;27863;49.440;11.102;2022-07-30T04:32:53;14.05;;;13.05;;
42194;SDS011;27863;49.440;11.102;2022-07-30T04:36:14;14.48;;;13.38;;
42194;SDS011;27863;49.440;11.102;2022-07-30T04:39:16;16.58;;;15.30;;
42194;SDS011;27863;49.440;11.102;2022-07-30T04:42:17;16.13;;;14.82;;
42194;SDS011;27863;49.440;11.102;2022-07-30T04:45:25;15.90;;;14.50;;
42194;SDS011;27863;49.440;11.102;2022-07-30T04:48:30;14.88;;;13.77;;
42194;SDS011;27863;49.440;11.102;2022-07-30T04:51:41;16.67;;;15.48;;
42194;SDS011;27863;49.440;11.102;2022-07-30T04:54:44;14.30;;;13.25;;
42194;SDS011;27863;49.440;11.102;2022-07-30T04:57:50;14.57;;;13.27;;
42194;SDS011;27863;49.440;11.102;2022-07-30T05:00:51;12.35;;;11.52;;
42194;SDS011;27863;49.440;11.102;2022-07-30T05:03:59;13.77;;;12.77;;
42194;SDS011;27863;49.440;11.102;2022-07-30T05:07:01;12.93;;;12.02;;
42194;SDS011;27863;49.440;11.102;2022-07-30T05:10:02;11.68;;;10.88;;
42194;SDS011;27863;49.440;11.102;2022-07-30T05:13:04;13.95;;;12.95;;
42194;SDS011;27863;49.440;11.102;2022-07-30T05:16:10;11.90;;;11.07;;
42194;SDS011;27863;49.440;11.102;2022-07-30T05:19:11;12.82;;;11.93;;
42194;SDS011;27863;49.440;11.102;2022-07-30T05:22:11;14.88;;;13.80;;
42194;SDS011;27863;49.440;11.102;2022-07-30T05:25:13;12.40;;;11.48;;
42194;SDS011;27863;49.440;11.102;2022-07-30T05:28:14;14.43;;;13.43;;
42194;SDS011;27863;49.440;11.102;2022-07-30T05:31:16;14.82;;;13.73;;
42194;SDS011;27863;49.440;11.102;2022-07-30T05:34:25;16.88;;;15.30;;
42194;SDS011;27863;49.440;11.102;2022-07-30T05:37:27;15.65;;;14.32;;
42194;SDS011;27863;49.440;11.102;2022-07-30T05:40:27;13.63;;;12.50;;
42194;SDS011;27863;49.440;11.102;2022-07-30T05:43:51;15.18;;;14.13;;
42194;SDS011;27863;49.440;11.102;2022-07-30T05:46:53;14.73;;;13.63;;
42194;SDS011;27863;49.440;11.102;2022-07-30T05:49:54;15.15;;;14.05;;
42194;SDS011;27863;49.440;11.102;2022-07-30T05:52:54;15.63;;;14.43;;
42194;SDS011;27863;49.440;11.102;2022-07-30T05:56:17;16.70;;;15.40;;
42194;SDS011;27863;49.440;11.102;2022-07-30T05:59:44;21.00;;;19.20;;
42194;SDS011;27863;49.440;11.102;2022-07-30T06:02:53;18.33;;;16.92;;
42194;SDS011;27863;49.440;11.102;2022-07-30T06:06:01;18.88;;;17.08;;
42194;SDS011;27863;49.440;11.102;2022-07-30T06:09:03;18.35;;;16.73;;
42194;SDS011;27863;49.440;11.102;2022-07-30T06:12:04;17.65;;;16.15;;
42194;SDS011;27863;49.440;11.102;2022-07-30T06:15:05;19.08;;;17.27;;
42194;SDS011;27863;49.440;11.102;2022-07-30T06:18:10;16.13;;;14.82;;
42194;SDS011;27863;49.440;11.102;2022-07-30T06:21:16;15.60;;;14.50;;
42194;SDS011;27863;49.440;11.102;2022-07-30T06:24:40;13.25;;;12.15;;
42194;SDS011;27863;49.440;11.102;2022-07-30T06:27:46;13.38;;;12.43;;
42194;SDS011;27863;49.440;11.102;2022-07-30T06:30:47;13.35;;;12.30;;
42194;SDS011;27863;49.440;11.102;2022-07-30T06:33:49;12.38;;;11.48;;
42194;SDS011;27863;49.440;11.102;2022-07-30T06:36:50;10.60;;;9.70;;
42194;SDS011;27863;49.440;11.102;2022-07-30T06:39:54;11.07;;;10.27;;
42194;SDS011;27863;49.440;11.102;2022-07-30T06:43:24;11.60;;;10.50;;
42194;SDS011;27863;49.440;11.102;2022-07-30T06:46:34;12.40;;;11.40;;
42194;SDS011;27863;49.440;11.102;2022-07-30T06:49:36;11.52;;;10.73;;
42194;SDS011;27863;49.440;11.102;2022-07-30T06:52:37;9.57;;;8.88;;
42194;SDS011;27863;49.440;11.102;2022-07-30T06:55:38;9.65;;;8.95;;
42194;SDS011;27863;49.440;11.102;2022-07-30T07:02:50;8.90;;;8.15;;
42194;SDS011;27863;49.440;11.102;2022-07-30T07:05:59;8.48;;;7.65;;
42194;SDS011;27863;49.440;11.102;2022-07-30T07:09:00;7.88;;;7.20;;
42194;SDS011;27863;49.440;11.102;2022-07-30T07:12:18;6.60;;;6.10;;
42194;SDS011;27863;49.440;11.102;2022-07-30T07:15:19;6.38;;;5.88;;
42194;SDS011;27863;49.440;11.102;2022-07-30T07:18:20;7.95;;;7.43;;
42194;SDS011;27863;49.440;11.102;2022-07-30T07:21:25;7.13;;;6.65;;
42194;SDS011;27863;49.440;11.102;2022-07-30T07:24:28;5.75;;;5.22;;
42194;SDS011;27863;49.440;11.102;2022-07-30T07:27:33;6.18;;;5.70;;
42194;SDS011;27863;49.440;11.102;2022-07-30T07:30:36;6.85;;;6.25;;
42194;SDS011;27863;49.440;11.102;2022-07-30T07:33:39;6.53;;;6.03;;
42194;SDS011;27863;49.440;11.102;2022-07-30T07:36:40;5.35;;;5.05;;
42194;SDS011;27863;49.440;11.102;2022-07-30T07:39:41;6.25;;;5.75;;
42194;SDS011;27863;49.440;11.102;2022-07-30T07:42:41;5.50;;;5.10;;
42194;SDS011;27863;49.440;11.102;2022-07-30T07:45:42;6.07;;;5.57;;
42194;SDS011;27863;49.440;11.102;2022-07-30T07:48:46;5.95;;;5.55;;
42194;SDS011;27863;49.440;11.102;2022-07-30T07:51:58;6.88;;;6.35;;
42194;SDS011;27863;49.440;11.102;2022-07-30T07:54:58;6.32;;;5.93;;
42194;SDS011;27863;49.440;11.102;2022-07-30T07:57:59;5.50;;;5.10;;
42194;SDS011;27863;49.440;11.102;2022-07-30T08:01:00;5.93;;;5.53;;
42194;SDS011;27863;49.440;11.102;2022-07-30T08:04:20;5.38;;;4.85;;
42194;SDS011;27863;49.440;11.102;2022-07-30T08:07:43;5.22;;;4.72;;
42194;SDS011;27863;49.440;11.102;2022-07-30T08:11:03;5.25;;;4.85;;
42194;SDS011;27863;49.440;11.102;2022-07-30T08:14:31;4.20;;;3.90;;
42194;SDS011;27863;49.440;11.102;2022-07-30T08:17:53;3.92;;;3.63;;
42194;SDS011;27863;49.440;11.102;2022-07-30T08:21:05;3.80;;;3.60;;
42194;SDS011;27863;49.440;11.102;2022-07-30T08:24:08;3.85;;;3.55;;
42194;SDS011;27863;49.440;11.102;2022-07-30T08:27:10;3.22;;;3.00;;
42194;SDS011;27863;49.440;11.102;2022-07-30T08:30:11;4.32;;;3.92;;
42194;SDS011;27863;49.440;11.102;2022-07-30T08:33:12;4.57;;;3.70;;
42194;SDS011;27863;49.440;11.102;2022-07-30T08:36:13;4.82;;;4.43;;
42194;SDS011;27863;49.440;11.102;2022-07-30T08:39:13;3.72;;;3.53;;
42194;SDS011;27863;49.440;11.102;2022-07-30T08:42:14;4.18;;;3.88;;
42194;SDS011;27863;49.440;11.102;2022-07-30T08:45:15;5.10;;;4.68;;
42194;SDS011;27863;49.440;11.102;2022-07-30T08:48:16;4.43;;;4.13;;
42194;SDS011;27863;49.440;11.102;2022-07-30T08:51:19;4.55;;;4.13;;
42194;SDS011;27863;49.440;11.102;2022-07-30T08:54:20;5.15;;;4.75;;
42194;SDS011;27863;49.440;11.102;2022-07-30T08:57:20;5.85;;;5.35;;
42194;SDS011;27863;49.440;11.102;2022-07-30T09:00:21;5.70;;;5.20;;
42194;SDS011;27863;49.440;11.102;2022-07-30T09:03:23;5.57;;;5.15;;
42194;SDS011;27863;49.440;11.102;2022-07-30T09:06:24;4.68;;;4.20;;
42194;SDS011;27863;49.440;11.102;2022-07-30T09:09:24;4.75;;;4.45;;
42194;SDS011;27863;49.440;11.102;2022-07-30T09:12:36;4.55;;;4.15;;
42194;SDS011;27863;49.440;11.102;2022-07-30T09:15:39;5.47;;;4.07;;
42194;SDS011;27863;49.440;11.102;2022-07-30T09:18:40;5.60;;;5.20;;
42194;SDS011;27863;49.440;11.102;2022-07-30T09:21:57;7.90;;;4.65;;
42194;SDS011;27863;49.440;11.102;2022-07-30T09:25:10;4.13;;;3.72;;
42194;SDS011;27863;49.440;11.102;2022-07-30T09:28:30;4.10;;;3.83;;
42194;SDS011;27863;49.440;11.102;2022-07-30T09:32:03;11.07;;;4.50;;
42194;SDS011;27863;49.440;11.102;2022-07-30T09:35:34;3.85;;;3.55;;
42194;SDS011;27863;49.440;11.102;2022-07-30T09:45:19;4.30;;;3.83;;
42194;SDS011;27863;49.440;11.102;2022-07-30T09:48:21;3.80;;;3.55;;
42194;SDS011;27863;49.440;11.102;2022-07-30T09:51:46;3.15;;;2.97;;
42194;SDS011;27863;49.440;11.102;2022-07-30T09:54:47;3.10;;;2.90;;
42194;SDS011;27863;49.440;11.102;2022-07-30T09:57:56;3.47;;;3.22;;
42194;SDS011;27863;49.440;11.102;2022-07-30T10:00:59;3.00;;;2.80;;
42194;SDS011;27863;49.440;11.102;2022-07-30T10:04:30;3.58;;;3.28;;
42194;SDS011;27863;49.440;11.102;2022-07-30T10:07:48;2.85;;;2.75;;
42194;SDS011;27863;49.440;11.102;2022-07-30T10:10:53;2.95;;;2.70;;
42194;SDS011;27863;49.440;11.102;2022-07-30T10:13:55;3.05;;;2.85;;
42194;SDS011;27863;49.440;11.102;2022-07-30T10:16:56;2.83;;;2.35;;
42194;SDS011;27863;49.440;11.102;2022-07-30T10:19:57;2.13;;;2.03;;
42194;SDS011;27863;49.440;11.102;2022-07-30T10:23:17;2.38;;;2.28;;
42194;SDS011;27863;49.440;11.102;2022-07-30T10:26:51;3.75;;;3.15;;
42194;SDS011;27863;49.440;11.102;2022-07-30T10:30:11;3.85;;;2.83;;
42194;SDS011;27863;49.440;11.102;2022-07-30T10:33:11;2.95;;;2.67;;
42194;SDS011;27863;49.440;11.102;2022-07-30T10:36:12;3.00;;;2.72;;
42194;SDS011;27863;49.440;11.102;2022-07-30T10:39:14;2.70;;;2.50;;
42194;SDS011;27863;49.440;11.102;2022-07-30T10:49:06;2.90;;;2.60;;
42194;SDS011;27863;49.440;11.102;2022-07-30T10:52:36;2.58;;;2.38;;
42194;SDS011;27863;49.440;11.102;2022-07-30T10:56:08;2.65;;;2.40;;
42194;SDS011;27863;49.440;11.102;2022-07-30T10:59:19;2.85;;;2.65;;
42194;SDS011;27863;49.440;11.102;2022-07-30T11:02:24;2.35;;;2.25;;
42194;SDS011;27863;49.440;11.102;2022-07-30T11:05:26;3.35;;;3.08;;
42194;SDS011;27863;49.440;11.102;2022-07-30T11:08:28;3.45;;;3.17;;
42194;SDS011;27863;49.440;11.102;2022-07-30T11:17:59;2.30;;;2.20;;
42194;SDS011;27863;49.440;11.102;2022-07-30T11:21:17;3.40;;;3.03;;
42194;SDS011;27863;49.440;11.102;2022-07-30T11:30:44;3.03;;;2.70;;
42194;SDS011;27863;49.440;11.102;2022-07-30T11:33:45;3.58;;;3.35;;
42194;SDS011;27863;49.440;11.102;2022-07-30T11:40:15;4.38;;;3.10;;
42194;SDS011;27863;49.440;11.102;2022-07-30T11:46:25;3.40;;;2.35;;
42194;SDS011;27863;49.440;11.102;2022-07-30T11:49:32;2.80;;;2.47;;
42194;SDS011;27863;49.440;11.102;2022-07-30T11:52:34;2.83;;;2.58;;
42194;SDS011;27863;49.440;11.102;2022-07-30T11:58:39;2.80;;;2.60;;
42194;SDS011;27863;49.440;11.102;2022-07-30T12:01:41;2.55;;;2.35;;
42194;SDS011;27863;49.440;11.102;2022-07-30T12:04:42;3.20;;;2.28;;
42194;SDS011;27863;49.440;11.102;2022-07-30T12:07:43;2.70;;;2.50;;
42194;SDS011;27863;49.440;11.102;2022-07-30T12:10:53;2.58;;;2.42;;
42194;SDS011;27863;49.440;11.102;2022-07-30T12:13:57;3.20;;;2.90;;
42194;SDS011;27863;49.440;11.102;2022-07-30T12:16:58;4.60;;;2.55;;
42194;SDS011;27863;49.440;11.102;2022-07-30T12:19:59;3.20;;;2.90;;
42194;SDS011;27863;49.440;11.102;2022-07-30T12:22:59;2.30;;;2.13;;
42194;SDS011;27863;49.440;11.102;2022-07-30T12:26:01;2.70;;;2.50;;
42194;SDS011;27863;49.440;11.102;2022-07-30T12:29:03;4.10;;;3.38;;
42194;SDS011;27863;49.440;11.102;2022-07-30T12:32:05;3.80;;;3.05;;
42194;SDS011;27863;49.440;11.102;2022-07-30T12:35:06;5.93;;;4.35;;
42194;SDS011;27863;49.440;11.102;2022-07-30T12:38:07;6.82;;;3.80;;
42194;SDS011;27863;49.440;11.102;2022-07-30T12:41:07;4.65;;;3.63;;
42194;SDS011;27863;49.440;11.102;2022-07-30T12:44:08;4.57;;;4.15;;
42194;SDS011;27863;49.440;11.102;2022-07-30T12:47:25;4.38;;;3.95;;
42194;SDS011;27863;49.440;11.102;2022-07-30T12:50:26;5.80;;;4.28;;
42194;SDS011;27863;49.440;11.102;2022-07-30T12:53:30;3.92;;;3.63;;
42194;SDS011;27863;49.440;11.102;2022-07-30T12:56:31;5.13;;;4.65;;
42194;SDS011;27863;49.440;11.102;2022-07-30T12:59:33;5.85;;;5.30;;
42194;SDS011;27863;49.440;11.102;2022-07-30T13:02:34;5.75;;;5.32;;
42194;SDS011;27863;49.440;11.102;2022-07-30T13:05:44;4.63;;;4.22;;
42194;SDS011;27863;49.440;11.102;2022-07-30T13:08:55;4.60;;;3.78;;
42194;SDS011;27863;49.440;11.102;2022-07-30T13:11:57;4.15;;;3.85;;
42194;SDS011;27863;49.440;11.102;2022-07-30T13:14:58;3.70;;;3.38;;
42194;SDS011;27863;49.440;11.102;2022-07-30T13:17:58;4.43;;;4.03;;
42194;SDS011;27863;49.440;11.102;2022-07-30T13:20:59;4.18;;;3.88;;
42194;SDS011;27863;49.440;11.102;2022-07-30T13:24:00;3.72;;;3.42;;
42194;SDS011;27863;49.440;11.102;2022-07-30T13:27:01;6.35;;;3.40;;
42194;SDS011;27863;49.440;11.102;2022-07-30T13:30:02;3.53;;;3.22;;
42194;SDS011;27863;49.440;11.102;2022-07-30T13:33:03;8.00;;;3.00;;
42194;SDS011;27863;49.440;11.102;2022-07-30T13:36:04;3.22;;;3.03;;
42194;SDS011;27863;49.440;11.102;2022-07-30T13:39:05;5.07;;;3.83;;
42194;SDS011;27863;49.440;11.102;2022-07-30T13:42:06;3.17;;;2.97;;
42194;SDS011;27863;49.440;11.102;2022-07-30T13:45:07;7.35;;;3.30;;
42194;SDS011;27863;49.440;11.102;2022-07-30T13:48:08;2.83;;;2.63;;
42194;SDS011;27863;49.440;11.102;2022-07-30T13:51:08;3.15;;;2.92;;
42194;SDS011;27863;49.440;11.102;2022-07-30T13:54:09;4.28;;;2.80;;
42194;SDS011;27863;49.440;11.102;2022-07-30T13:57:09;2.92;;;2.72;;
42194;SDS011;27863;49.440;11.102;2022-07-30T14:00:11;2.90;;;2.60;;
42194;SDS011;27863;49.440;11.102;2022-07-30T14:03:12;2.88;;;2.60;;
42194;SDS011;27863;49.440;11.102;2022-07-30T14:06:13;7.50;;;2.42;;
42194;SDS011;27863;49.440;11.102;2022-07-30T14:09:14;2.38;;;2.17;;
42194;SDS011;27863;49.440;11.102;2022-07-30T14:12:16;2.50;;;2.28;;
42194;SDS011;27863;49.440;11.102;2022-07-30T14:15:17;2.63;;;2.13;;
42194;SDS011;27863;49.440;11.102;2022-07-30T14:18:18;3.00;;;2.40;;
42194;SDS011;27863;49.440;11.102;2022-07-30T14:21:19;3.30;;;2.20;;
42194;SDS011;27863;49.440;11.102;2022-07-30T14:24:20;3.63;;;2.30;;
42194;SDS011;27863;49.440;11.102;2022-07-30T14:27:21;2.65;;;1.88;;
42194;SDS011;27863;49.440;11.102;2022-07-30T14:30:21;2.13;;;1.85;;
42194;SDS011;27863;49.440;11.102;2022-07-30T14:33:23;2.40;;;2.17;;
42194;SDS011;27863;49.440;11.102;2022-07-30T14:36:24;2.70;;;2.08;;
42194;SDS011;27863;49.440;11.102;2022-07-30T14:39:27;2.53;;;2.33;;
42194;SDS011;27863;49.440;11.102;2022-07-30T14:42:27;2.28;;;2.08;;
42194;SDS011;27863;49.440;11.102;2022-07-30T14:45:28;2.70;;;2.50;;
42194;SDS011;27863;49.440;11.102;2022-07-30T14:48:28;2.88;;;2.42;;
42194;SDS011;27863;49.440;11.102;2022-07-30T14:51:30;2.80;;;2.60;;
42194;SDS011;27863;49.440;11.102;2022-07-30T14:54:30;3.78;;;3.47;;
42194;SDS011;27863;49.440;11.102;2022-07-30T14:57:31;3.15;;;2.17;;
42194;SDS011;27863;49.440;11.102;2022-07-30T15:00:31;3.75;;;2.67;;
42194;SDS011;27863;49.440;11.102;2022-07-30T15:03:34;2.15;;;2.03;;
42194;SDS011;27863;49.440;11.102;2022-07-30T15:06:35;2.45;;;2.20;;
42194;SDS011;27863;49.440;11.102;2022-07-30T15:09:37;2.20;;;1.92;;
42194;SDS011;27863;49.440;11.102;2022-07-30T15:12:39;2.60;;;2.38;;
42194;SDS011;27863;49.440;11.102;2022-07-30T15:15:39;2.33;;;2.17;;
42194;SDS011;27863;49.440;11.102;2022-07-30T15:18:40;2.80;;;2.60;;
42194;SDS011;27863;49.440;11.102;2022-07-30T15:21:40;3.88;;;2.92;;
42194;SDS011;27863;49.440;11.102;2022-07-30T15:24:43;3.60;;;3.30;;
42194;SDS011;27863;49.440;11.102;2022-07-30T15:27:44;3.05;;;2.72;;
42194;SDS011;27863;49.440;11.102;2022-07-30T15:30:44;3.03;;;2.72;;
42194;SDS011;27863;49.440;11.102;2022-07-30T15:33:45;3.05;;;2.78;;
42194;SDS011;27863;49.440;11.102;2022-07-30T15:36:48;2.63;;;2.50;;
42194;SDS011;27863;49.440;11.102;2022-07-30T15:39:48;2.90;;;2.70;;
42194;SDS011;27863;49.440;11.102;2022-07-30T15:42:49;2.67;;;2.47;;
42194;SDS011;27863;49.440;11.102;2022-07-30T15:45:50;3.65;;;3.35;;
42194;SDS011;27863;49.440;11.102;2022-07-30T15:48:51;2.92;;;2.50;;
42194;SDS011;27863;49.440;11.102;2022-07-30T15:51:51;3.70;;;3.00;;
42194;SDS011;27863;49.440;11.102;2022-07-30T15:54:52;3.65;;;3.20;;
42194;SDS011;27863;49.440;11.102;2022-07-30T15:57:53;3.80;;;3.50;;
42194;SDS011;27863;49.440;11.102;2022-07-30T16:00:55;6.75;;;3.67;;
42194;SDS011;27863;49.440;11.102;2022-07-30T16:03:57;4.47;;;3.13;;
42194;SDS011;27863;49.440;11.102;2022-07-30T16:07:00;3.53;;;3.22;;
42194;SDS011;27863;49.440;11.102;2022-07-30T16:10:03;3.72;;;3.42;;
42194;SDS011;27863;49.440;11.102;2022-07-30T16:13:05;2.97;;;2.78;;
42194;SDS011;27863;49.440;11.102;2022-07-30T16:16:06;3.58;;;3.10;;
42194;SDS011;27863;49.440;11.102;2022-07-30T16:19:07;4.18;;;3.22;;
42194;SDS011;27863;49.440;11.102;2022-07-30T16:22:08;3.30;;;3.00;;
42194;SDS011;27863;49.440;11.102;2022-07-30T16:25:09;5.60;;;3.83;;
42194;SDS011;27863;49.440;11.102;2022-07-30T16:28:09;3.80;;;3.50;;
42194;SDS011;27863;49.440;11.102;2022-07-30T16:31:10;3.20;;;2.90;;
42194;SDS011;27863;49.440;11.102;2022-07-30T16:34:10;6.55;;;3.38;;
42194;SDS011;27863;49.440;11.102;2022-07-30T16:37:11;3.58;;;3.28;;
42194;SDS011;27863;49.440;11.102;2022-07-30T16:40:11;2.97;;;2.78;;
42194;SDS011;27863;49.440;11.102;2022-07-30T16:43:12;3.63;;;3.42;;
42194;SDS011;27863;49.440;11.102;2022-07-30T16:46:13;2.92;;;2.72;;
42194;SDS011;27863;49.440;11.102;2022-07-30T16:49:13;4.70;;;4.35;;
42194;SDS011;27863;49.440;11.102;2022-07-30T16:52:14;5.30;;;4.93;;
42194;SDS011;27863;49.440;11.102;2022-07-30T16:55:17;2.88;;;2.67;;
42194;SDS011;27863;49.440;11.102;2022-07-30T16:58:18;2.97;;;2.78;;
42194;SDS011;27863;49.440;11.102;2022-07-30T17:01:19;3.10;;;2.90;;
42194;SDS011;27863;49.440;11.102;2022-07-30T17:04:19;3.35;;;3.05;;
42194;SDS011;27863;49.440;11.102;2022-07-30T17:07:20;2.90;;;2.70;;
42194;SDS011;27863;49.440;11.102;2022-07-30T17:10:21;3.25;;;2.50;;
42194;SDS011;27863;49.440;11.102;2022-07-30T17:13:22;3.22;;;2.60;;
42194;SDS011;27863;49.440;11.102;2022-07-30T17:16:23;15.60;;;14.35;;
42194;SDS011;27863;49.440;11.102;2022-07-30T17:19:23;9.85;;;9.15;;
42194;SDS011;27863;49.440;11.102;2022-07-30T17:22:25;4.57;;;2.60;;
42194;SDS011;27863;49.440;11.102;2022-07-30T17:25:25;4.68;;;2.60;;
42194;SDS011;27863;49.440;11.102;2022-07-30T17:28:26;6.40;;;2.20;;
42194;SDS011;27863;49.440;11.102;2022-07-30T17:31:26;2.92;;;2.50;;
42194;SDS011;27863;49.440;11.102;2022-07-30T17:34:27;2.72;;;2.50;;
42194;SDS011;27863;49.440;11.102;2022-07-30T17:37:28;3.88;;;2.78;;
42194;SDS011;27863;49.440;11.102;2022-07-30T17:40:29;4.05;;;2.58;;
42194;SDS011;27863;49.440;11.102;2022-07-30T17:43:29;2.80;;;2.60;;
42194;SDS011;27863;49.440;11.102;2022-07-30T17:46:30;2.90;;;2.70;;
42194;SDS011;27863;49.440;11.102;2022-07-30T17:49:33;3.25;;;2.95;;
42194;SDS011;27863;49.440;11.102;2022-07-30T17:52:33;5.47;;;4.97;;
42194;SDS011;27863;49.440;11.102;2022-07-30T17:55:34;3.33;;;3.10;;
42194;SDS011;27863;49.440;11.102;2022-07-30T17:58:35;6.28;;;5.88;;
42194;SDS011;27863;49.440;11.102;2022-07-30T18:01:36;3.47;;;3.20;;
42194;SDS011;27863;49.440;11.102;2022-07-30T18:04:36;3.53;;;2.75;;
42194;SDS011;27863;49.440;11.102;2022-07-30T18:07:37;3.85;;;3.50;;
42194;SDS011;27863;49.440;11.102;2022-07-30T18:10:37;3.03;;;2.83;;
42194;SDS011;27863;49.440;11.102;2022-07-30T18:13:38;3.95;;;3.60;;
42194;SDS011;27863;49.440;11.102;2022-07-30T18:16:38;6.72;;;4.05;;
42194;SDS011;27863;49.440;11.102;2022-07-30T18:19:39;7.22;;;6.32;;
42194;SDS011;27863;49.440;11.102;2022-07-30T18:22:39;2.97;;;2.78;;
42194;SDS011;27863;49.440;11.102;2022-07-30T18:25:40;5.35;;;4.82;;
42194;SDS011;27863;49.440;11.102;2022-07-30T18:28:41;39.85;;;23.73;;
42194;SDS011;27863;49.440;11.102;2022-07-30T18:31:41;5.03;;;2.70;;
42194;SDS011;27863;49.440;11.102;2022-07-30T18:34:42;3.33;;;2.97;;
42194;SDS011;27863;49.440;11.102;2022-07-30T18:37:44;4.00;;;3.70;;
42194;SDS011;27863;49.440;11.102;2022-07-30T18:40:45;3.88;;;3.58;;
42194;SDS011;27863;49.440;11.102;2022-07-30T18:43:58;4.85;;;3.25;;
42194;SDS011;27863;49.440;11.102;2022-07-30T18:46:59;4.78;;;3.47;;
42194;SDS011;27863;49.440;11.102;2022-07-30T18:50:00;3.08;;;2.85;;